sensor_id;sensor_type;location;lat;lon;timestamp;pressure;altitude;pressure_sealevel;temperature;humidity
19672;BME280;9983;51.114;13.788;2023-01-09T00:00:36;97928.84;;;7.83;100.00
19672;BME280;9983;51.114;13.788;2023-01-09T00:05:36;97922.34;;;7.92;100.00
19672;BME280;9983;51.114;13.788;2023-01-09T00:10:36;97925.25;;;8.04;100.00
19672;BME280;9983;51.114;13.788;2023-01-09T00:15:37;97920.69;;;7.91;100.00
19672;BME280;9983;51.114;13.788;2023-01-09T00:20:37;97922.38;;;7.98;100.00
19672;BME280;9983;51.114;13.788;2023-01-09T00:25:37;97903.22;;;8.29;100.00
19672;BME280;9983;51.114;13.788;2023-01-09T00:30:38;97894.22;;;7.96;100.00
19672;BME280;9983;51.114;13.788;2023-01-09T00:35:38;97890.06;;;8.21;100.00
19672;BME280;9983;51.114;13.788;2023-01-09T00:40:38;97894.19;;;8.24;100.00
19672;BME280;9983;51.114;13.788;2023-01-09T00:45:39;97893.84;;;7.99;100.00
19672;BME280;9983;51.114;13.788;2023-01-09T00:50:39;97865.41;;;8.19;100.00
19672;BME280;9983;51.114;13.788;2023-01-09T00:55:40;97867.84;;;8.14;100.00
19672;BME280;9983;51.114;13.788;2023-01-09T01:00:40;97866.16;;;8.00;100.00
19672;BME280;9983;51.114;13.788;2023-01-09T01:05:40;97864.81;;;7.83;100.00
19672;BME280;9983;51.114;13.788;2023-01-09T01:11:04;97848.50;;;7.65;100.00
19672;BME280;9983;51.114;13.788;2023-01-09T01:16:07;97833.59;;;7.77;100.00
19672;BME280;9983;51.114;13.788;2023-01-09T01:21:09;97830.97;;;7.49;100.00
19672;BME280;9983;51.114;13.788;2023-01-09T01:26:12;97817.91;;;7.60;100.00
19672;BME280;9983;51.114;13.788;2023-01-09T01:31:17;97809.34;;;7.72;100.00
19672;BME280;9983;51.114;13.788;2023-01-09T01:36:18;97796.97;;;7.57;100.00
19672;BME280;9983;51.114;13.788;2023-01-09T01:41:18;97802.34;;;7.71;100.00
19672;BME280;9983;51.114;13.788;2023-01-09T01:46:30;97783.63;;;7.57;100.00
19672;BME280;9983;51.114;13.788;2023-01-09T01:51:33;97786.66;;;7.48;100.00
19672;BME280;9983;51.114;13.788;2023-01-09T01:56:39;97773.13;;;7.49;100.00
19672;BME280;9983;51.114;13.788;2023-01-09T02:01:43;97776.91;;;7.27;100.00
19672;BME280;9983;51.114;13.788;2023-01-09T02:06:47;97778.53;;;7.62;100.00
19672;BME280;9983;51.114;13.788;2023-01-09T02:11:50;97767.94;;;7.76;100.00
19672;BME280;9983;51.114;13.788;2023-01-09T02:17:04;97748.13;;;7.50;100.00
19672;BME280;9983;51.114;13.788;2023-01-09T02:33:16;97717.84;;;7.71;100.00
19672;BME280;9983;51.114;13.788;2023-01-09T02:43:39;97720.66;;;7.56;100.00
19672;BME280;9983;51.114;13.788;2023-01-09T02:48:41;97719.00;;;7.55;100.00
19672;BME280;9983;51.114;13.788;2023-01-09T02:54:06;97713.50;;;7.63;100.00
19672;BME280;9983;51.114;13.788;2023-01-09T02:59:20;97714.69;;;7.54;100.00
19672;BME280;9983;51.114;13.788;2023-01-09T03:04:32;97718.31;;;7.88;100.00
19672;BME280;9983;51.114;13.788;2023-01-09T03:09:40;97716.63;;;7.74;100.00
19672;BME280;9983;51.114;13.788;2023-01-09T03:14:55;97717.06;;;7.84;100.00
19672;BME280;9983;51.114;13.788;2023-01-09T03:19:59;97718.16;;;7.48;100.00
19672;BME280;9983;51.114;13.788;2023-01-09T03:25:01;97714.78;;;7.81;100.00
19672;BME280;9983;51.114;13.788;2023-01-09T03:30:01;97701.47;;;7.81;100.00
19672;BME280;9983;51.114;13.788;2023-01-09T03:35:02;97700.25;;;7.83;100.00
19672;BME280;9983;51.114;13.788;2023-01-09T03:40:03;97685.88;;;7.78;100.00
19672;BME280;9983;51.114;13.788;2023-01-09T03:45:04;97692.81;;;7.79;100.00
19672;BME280;9983;51.114;13.788;2023-01-09T03:50:05;97689.94;;;7.74;100.00
19672;BME280;9983;51.114;13.788;2023-01-09T03:55:06;97678.84;;;7.63;100.00
19672;BME280;9983;51.114;13.788;2023-01-09T04:00:07;97675.97;;;7.72;100.00
19672;BME280;9983;51.114;13.788;2023-01-09T04:05:07;97662.91;;;7.83;100.00
19672;BME280;9983;51.114;13.788;2023-01-09T04:10:08;97668.63;;;7.80;100.00
19672;BME280;9983;51.114;13.788;2023-01-09T04:15:09;97664.75;;;7.96;100.00
19672;BME280;9983;51.114;13.788;2023-01-09T04:20:10;97663.72;;;7.84;100.00
19672;BME280;9983;51.114;13.788;2023-01-09T04:25:10;97648.09;;;7.81;100.00
19672;BME280;9983;51.114;13.788;2023-01-09T04:30:10;97657.56;;;7.90;100.00
19672;BME280;9983;51.114;13.788;2023-01-09T04:35:11;97639.47;;;7.79;100.00
19672;BME280;9983;51.114;13.788;2023-01-09T04:40:11;97642.81;;;7.94;100.00
19672;BME280;9983;51.114;13.788;2023-01-09T04:45:12;97643.59;;;7.88;100.00
19672;BME280;9983;51.114;13.788;2023-01-09T04:50:14;97638.91;;;7.90;100.00
19672;BME280;9983;51.114;13.788;2023-01-09T04:55:15;97637.06;;;7.97;100.00
19672;BME280;9983;51.114;13.788;2023-01-09T05:00:15;97635.59;;;7.88;100.00
19672;BME280;9983;51.114;13.788;2023-01-09T05:05:15;97623.13;;;7.95;100.00
19672;BME280;9983;51.114;13.788;2023-01-09T05:10:16;97625.53;;;7.77;100.00
19672;BME280;9983;51.114;13.788;2023-01-09T05:15:16;97605.47;;;7.94;100.00
19672;BME280;9983;51.114;13.788;2023-01-09T05:20:16;97606.88;;;7.77;100.00
19672;BME280;9983;51.114;13.788;2023-01-09T05:25:16;97604.97;;;7.57;100.00
19672;BME280;9983;51.114;13.788;2023-01-09T05:30:17;97599.13;;;7.95;100.00
19672;BME280;9983;51.114;13.788;2023-01-09T05:35:17;97613.66;;;7.86;100.00
19672;BME280;9983;51.114;13.788;2023-01-09T05:40:17;97596.78;;;7.72;100.00
19672;BME280;9983;51.114;13.788;2023-01-09T05:45:18;97595.53;;;7.61;100.00
19672;BME280;9983;51.114;13.788;2023-01-09T05:50:18;97593.06;;;7.53;100.00
19672;BME280;9983;51.114;13.788;2023-01-09T05:55:19;97592.22;;;7.46;100.00
19672;BME280;9983;51.114;13.788;2023-01-09T06:00:19;97602.88;;;7.46;100.00
19672;BME280;9983;51.114;13.788;2023-01-09T06:05:19;97593.03;;;7.47;100.00
19672;BME280;9983;51.114;13.788;2023-01-09T06:10:20;97589.13;;;7.36;100.00
19672;BME280;9983;51.114;13.788;2023-01-09T06:15:20;97596.31;;;7.42;100.00
19672;BME280;9983;51.114;13.788;2023-01-09T06:20:20;97600.44;;;7.51;100.00
19672;BME280;9983;51.114;13.788;2023-01-09T06:25:21;97597.16;;;7.49;100.00
19672;BME280;9983;51.114;13.788;2023-01-09T06:30:21;97604.50;;;7.41;100.00
19672;BME280;9983;51.114;13.788;2023-01-09T06:35:21;97613.38;;;7.54;100.00
19672;BME280;9983;51.114;13.788;2023-01-09T06:40:21;97604.97;;;7.51;100.00
19672;BME280;9983;51.114;13.788;2023-01-09T06:45:22;97612.41;;;7.75;100.00
19672;BME280;9983;51.114;13.788;2023-01-09T06:50:22;97630.03;;;7.70;100.00
19672;BME280;9983;51.114;13.788;2023-01-09T06:55:22;97637.88;;;7.78;100.00
19672;BME280;9983;51.114;13.788;2023-01-09T07:00:22;97634.09;;;7.52;100.00
19672;BME280;9983;51.114;13.788;2023-01-09T07:05:23;97640.28;;;7.73;100.00
19672;BME280;9983;51.114;13.788;2023-01-09T07:10:23;97637.81;;;7.58;100.00
19672;BME280;9983;51.114;13.788;2023-01-09T07:15:23;97644.78;;;7.66;100.00
19672;BME280;9983;51.114;13.788;2023-01-09T07:20:24;97636.59;;;7.74;100.00
19672;BME280;9983;51.114;13.788;2023-01-09T07:25:24;97646.06;;;7.83;100.00
19672;BME280;9983;51.114;13.788;2023-01-09T07:30:24;97641.38;;;7.85;100.00
19672;BME280;9983;51.114;13.788;2023-01-09T07:35:25;97650.19;;;7.92;100.00
19672;BME280;9983;51.114;13.788;2023-01-09T07:40:25;97631.28;;;7.87;100.00
19672;BME280;9983;51.114;13.788;2023-01-09T07:45:26;97638.28;;;7.88;100.00
19672;BME280;9983;51.114;13.788;2023-01-09T07:50:26;97644.47;;;7.95;100.00
19672;BME280;9983;51.114;13.788;2023-01-09T07:55:26;97646.91;;;7.90;100.00
19672;BME280;9983;51.114;13.788;2023-01-09T08:00:27;97655.16;;;8.08;100.00
19672;BME280;9983;51.114;13.788;2023-01-09T08:05:27;97653.69;;;8.12;100.00
19672;BME280;9983;51.114;13.788;2023-01-09T08:10:27;97660.91;;;8.25;100.00
19672;BME280;9983;51.114;13.788;2023-01-09T08:15:28;97652.28;;;8.23;100.00
19672;BME280;9983;51.114;13.788;2023-01-09T08:20:28;97660.94;;;8.31;100.00
19672;BME280;9983;51.114;13.788;2023-01-09T08:25:28;97664.25;;;8.40;100.00
19672;BME280;9983;51.114;13.788;2023-01-09T08:30:28;97663.63;;;8.38;100.00
19672;BME280;9983;51.114;13.788;2023-01-09T08:35:29;97671.22;;;8.48;100.00
19672;BME280;9983;51.114;13.788;2023-01-09T08:40:29;97683.16;;;8.52;100.00
19672;BME280;9983;51.114;13.788;2023-01-09T08:45:30;97688.09;;;8.61;100.00
19672;BME280;9983;51.114;13.788;2023-01-09T08:50:49;97688.06;;;8.68;100.00
19672;BME280;9983;51.114;13.788;2023-01-09T08:55:49;97706.97;;;8.73;100.00
19672;BME280;9983;51.114;13.788;2023-01-09T09:00:50;97703.69;;;8.64;100.00
19672;BME280;9983;51.114;13.788;2023-01-09T09:05:50;97711.50;;;8.66;100.00
19672;BME280;9983;51.114;13.788;2023-01-09T09:10:50;97710.66;;;9.11;100.00
19672;BME280;9983;51.114;13.788;2023-01-09T09:15:51;97706.09;;;9.19;100.00
19672;BME280;9983;51.114;13.788;2023-01-09T09:20:51;97702.19;;;9.14;100.00
19672;BME280;9983;51.114;13.788;2023-01-09T09:25:51;97711.38;;;9.45;100.00
19672;BME280;9983;51.114;13.788;2023-01-09T09:30:51;97722.97;;;9.12;100.00
19672;BME280;9983;51.114;13.788;2023-01-09T09:35:52;97735.91;;;9.29;100.00
19672;BME280;9983;51.114;13.788;2023-01-09T09:46:16;97740.13;;;9.69;100.00
19672;BME280;9983;51.114;13.788;2023-01-09T09:51:38;97751.28;;;9.53;100.00
19672;BME280;9983;51.114;13.788;2023-01-09T09:56:48;97754.09;;;9.71;100.00
19672;BME280;9983;51.114;13.788;2023-01-09T10:02:43;97760.25;;;9.78;100.00
19672;BME280;9983;51.114;13.788;2023-01-09T10:07:42;97748.50;;;9.86;100.00
19672;BME280;9983;51.114;13.788;2023-01-09T10:12:55;97761.53;;;9.63;100.00
19672;BME280;9983;51.114;13.788;2023-01-09T10:18:26;97760.78;;;9.29;100.00
19672;BME280;9983;51.114;13.788;2023-01-09T10:23:53;97766.13;;;9.29;100.00
19672;BME280;9983;51.114;13.788;2023-01-09T10:29:29;97775.75;;;9.50;100.00
19672;BME280;9983;51.114;13.788;2023-01-09T10:39:53;97803.56;;;9.23;100.00
19672;BME280;9983;51.114;13.788;2023-01-09T10:45:17;97810.56;;;9.43;100.00
19672;BME280;9983;51.114;13.788;2023-01-09T10:50:25;97817.56;;;8.85;100.00
19672;BME280;9983;51.114;13.788;2023-01-09T10:55:37;97823.69;;;8.66;100.00
19672;BME280;9983;51.114;13.788;2023-01-09T11:00:41;97826.19;;;9.00;100.00
19672;BME280;9983;51.114;13.788;2023-01-09T11:05:43;97837.28;;;9.50;100.00
19672;BME280;9983;51.114;13.788;2023-01-09T11:10:46;97852.53;;;9.43;100.00
19672;BME280;9983;51.114;13.788;2023-01-09T11:16:07;97850.22;;;9.66;100.00
19672;BME280;9983;51.114;13.788;2023-01-09T11:21:32;97842.88;;;10.13;100.00
19672;BME280;9983;51.114;13.788;2023-01-09T11:26:34;97842.25;;;9.27;100.00
19672;BME280;9983;51.114;13.788;2023-01-09T11:31:35;97848.38;;;9.47;100.00
19672;BME280;9983;51.114;13.788;2023-01-09T11:36:35;97838.56;;;9.28;100.00
19672;BME280;9983;51.114;13.788;2023-01-09T11:41:35;97858.69;;;9.24;100.00
19672;BME280;9983;51.114;13.788;2023-01-09T11:46:36;97844.69;;;9.15;100.00
19672;BME280;9983;51.114;13.788;2023-01-09T11:51:38;97849.66;;;9.25;100.00
19672;BME280;9983;51.114;13.788;2023-01-09T11:56:39;97861.97;;;9.39;100.00
19672;BME280;9983;51.114;13.788;2023-01-09T12:07:41;97842.63;;;9.30;93.39
19672;BME280;9983;51.114;13.788;2023-01-09T12:13:02;97848.34;;;9.73;89.41
19672;BME280;9983;51.114;13.788;2023-01-09T12:18:30;97840.00;;;10.21;86.99
19672;BME280;9983;51.114;13.788;2023-01-09T12:29:09;97875.63;;;10.73;80.36
19672;BME280;9983;51.114;13.788;2023-01-09T12:44:54;97872.41;;;10.57;77.30
19672;BME280;9983;51.114;13.788;2023-01-09T12:55:17;97885.75;;;10.71;77.10
19672;BME280;9983;51.114;13.788;2023-01-09T13:00:23;97882.25;;;10.19;78.41
19672;BME280;9983;51.114;13.788;2023-01-09T13:05:30;97899.19;;;9.93;79.56
19672;BME280;9983;51.114;13.788;2023-01-09T13:10:38;97907.81;;;10.02;80.48
19672;BME280;9983;51.114;13.788;2023-01-09T13:15:49;97913.22;;;10.59;79.04
19672;BME280;9983;51.114;13.788;2023-01-09T13:20:53;97910.00;;;10.31;78.10
19672;BME280;9983;51.114;13.788;2023-01-09T13:25:57;97914.56;;;10.24;80.50
19672;BME280;9983;51.114;13.788;2023-01-09T13:31:22;97910.78;;;10.51;77.73
19672;BME280;9983;51.114;13.788;2023-01-09T13:36:29;97913.94;;;10.80;77.45
19672;BME280;9983;51.114;13.788;2023-01-09T13:41:30;97922.59;;;10.82;76.89
19672;BME280;9983;51.114;13.788;2023-01-09T13:46:55;97933.44;;;10.49;77.15
19672;BME280;9983;51.114;13.788;2023-01-09T14:07:35;97970.63;;;10.19;78.49
19672;BME280;9983;51.114;13.788;2023-01-09T14:12:40;97976.34;;;10.42;80.48
19672;BME280;9983;51.114;13.788;2023-01-09T14:17:41;97994.50;;;9.94;81.55
19672;BME280;9983;51.114;13.788;2023-01-09T14:22:41;97991.22;;;9.72;83.77
19672;BME280;9983;51.114;13.788;2023-01-09T14:28:33;97990.38;;;9.65;83.62
19672;BME280;9983;51.114;13.788;2023-01-09T14:38:39;97996.16;;;9.95;84.24
19672;BME280;9983;51.114;13.788;2023-01-09T14:43:59;98007.28;;;9.85;84.32
19672;BME280;9983;51.114;13.788;2023-01-09T14:49:05;98014.25;;;9.73;83.78
19672;BME280;9983;51.114;13.788;2023-01-09T14:54:21;98010.97;;;9.91;83.08
19672;BME280;9983;51.114;13.788;2023-01-09T14:59:23;98026.22;;;9.77;84.08
19672;BME280;9983;51.114;13.788;2023-01-09T15:04:35;98034.84;;;10.06;82.41
19672;BME280;9983;51.114;13.788;2023-01-09T15:09:46;98036.13;;;10.36;82.25
19672;BME280;9983;51.114;13.788;2023-01-09T15:14:51;98033.63;;;10.41;82.03
19672;BME280;9983;51.114;13.788;2023-01-09T15:19:53;98039.81;;;10.15;82.60
19672;BME280;9983;51.114;13.788;2023-01-09T15:24:53;98043.50;;;10.14;81.94
19672;BME280;9983;51.114;13.788;2023-01-09T15:29:54;98054.66;;;10.38;82.24
19672;BME280;9983;51.114;13.788;2023-01-09T15:34:55;98046.59;;;10.05;85.62
19672;BME280;9983;51.114;13.788;2023-01-09T15:39:58;98050.00;;;9.33;87.18
19672;BME280;9983;51.114;13.788;2023-01-09T15:45:00;98053.19;;;9.76;85.93
19672;BME280;9983;51.114;13.788;2023-01-09T15:50:02;98039.69;;;9.30;87.93
19672;BME280;9983;51.114;13.788;2023-01-09T15:55:26;98056.88;;;8.94;90.55
19672;BME280;9983;51.114;13.788;2023-01-09T16:00:36;98062.75;;;8.77;91.53
19672;BME280;9983;51.114;13.788;2023-01-09T16:05:43;98068.88;;;9.11;90.39
19672;BME280;9983;51.114;13.788;2023-01-09T16:10:48;98079.09;;;9.01;90.86
19672;BME280;9983;51.114;13.788;2023-01-09T16:15:50;98087.09;;;9.49;88.84
19672;BME280;9983;51.114;13.788;2023-01-09T16:21:03;98102.06;;;9.37;89.63
19672;BME280;9983;51.114;13.788;2023-01-09T16:26:19;98091.19;;;9.45;89.05
19672;BME280;9983;51.114;13.788;2023-01-09T16:31:29;98084.78;;;8.85;90.89
19672;BME280;9983;51.114;13.788;2023-01-09T16:36:32;98097.69;;;9.23;89.71
19672;BME280;9983;51.114;13.788;2023-01-09T16:41:33;98095.31;;;8.93;90.81
19672;BME280;9983;51.114;13.788;2023-01-09T16:46:52;98101.81;;;8.84;91.92
19672;BME280;9983;51.114;13.788;2023-01-09T16:51:53;98103.22;;;8.80;91.83
19672;BME280;9983;51.114;13.788;2023-01-09T16:56:53;98109.81;;;8.78;92.38
19672;BME280;9983;51.114;13.788;2023-01-09T17:01:54;98125.47;;;8.87;91.67
19672;BME280;9983;51.114;13.788;2023-01-09T17:06:54;98129.50;;;8.70;91.77
19672;BME280;9983;51.114;13.788;2023-01-09T17:11:54;98124.09;;;8.14;97.42
19672;BME280;9983;51.114;13.788;2023-01-09T17:16:55;98132.63;;;8.03;97.20
19672;BME280;9983;51.114;13.788;2023-01-09T17:21:55;98134.38;;;7.75;99.36
19672;BME280;9983;51.114;13.788;2023-01-09T17:26:55;98145.19;;;7.88;98.89
19672;BME280;9983;51.114;13.788;2023-01-09T17:32:16;98152.69;;;7.99;97.43
19672;BME280;9983;51.114;13.788;2023-01-09T17:37:18;98159.69;;;8.00;97.51
19672;BME280;9983;51.114;13.788;2023-01-09T17:42:18;98157.75;;;7.73;98.33
19672;BME280;9983;51.114;13.788;2023-01-09T17:47:18;98168.94;;;7.83;97.31
19672;BME280;9983;51.114;13.788;2023-01-09T17:52:18;98181.66;;;7.81;97.83
19672;BME280;9983;51.114;13.788;2023-01-09T17:57:20;98185.00;;;7.53;99.51
19672;BME280;9983;51.114;13.788;2023-01-09T18:02:21;98202.16;;;7.15;100.00
19672;BME280;9983;51.114;13.788;2023-01-09T18:07:21;98206.13;;;7.19;100.00
19672;BME280;9983;51.114;13.788;2023-01-09T18:12:21;98210.16;;;7.30;100.00
19672;BME280;9983;51.114;13.788;2023-01-09T18:17:22;98206.19;;;7.40;100.00
19672;BME280;9983;51.114;13.788;2023-01-09T18:22:22;98216.97;;;7.17;100.00
19672;BME280;9983;51.114;13.788;2023-01-09T18:27:22;98212.97;;;7.57;100.00
19672;BME280;9983;51.114;13.788;2023-01-09T18:32:23;98212.00;;;7.80;100.00
19672;BME280;9983;51.114;13.788;2023-01-09T18:37:23;98210.22;;;7.66;100.00
19672;BME280;9983;51.114;13.788;2023-01-09T18:42:23;98203.38;;;7.78;100.00
19672;BME280;9983;51.114;13.788;2023-01-09T18:47:24;98204.28;;;7.85;100.00
19672;BME280;9983;51.114;13.788;2023-01-09T18:52:24;98202.75;;;7.97;100.00
19672;BME280;9983;51.114;13.788;2023-01-09T18:57:24;98210.66;;;8.05;100.00
19672;BME280;9983;51.114;13.788;2023-01-09T19:02:25;98208.63;;;8.07;99.28
19672;BME280;9983;51.114;13.788;2023-01-09T19:07:25;98203.28;;;8.07;96.45
19672;BME280;9983;51.114;13.788;2023-01-09T19:12:25;98210.97;;;7.59;98.23
19672;BME280;9983;51.114;13.788;2023-01-09T19:17:25;98212.94;;;8.29;95.46
19672;BME280;9983;51.114;13.788;2023-01-09T19:22:26;98228.81;;;8.52;94.92
19672;BME280;9983;51.114;13.788;2023-01-09T19:27:29;98245.25;;;8.56;94.01
19672;BME280;9983;51.114;13.788;2023-01-09T19:32:29;98251.44;;;8.56;93.25
19672;BME280;9983;51.114;13.788;2023-01-09T19:37:30;98252.06;;;8.37;93.75
19672;BME280;9983;51.114;13.788;2023-01-09T19:42:30;98259.63;;;8.55;94.18
19672;BME280;9983;51.114;13.788;2023-01-09T19:47:33;98271.72;;;8.72;93.22
19672;BME280;9983;51.114;13.788;2023-01-09T19:52:36;98273.44;;;8.58;93.00
19672;BME280;9983;51.114;13.788;2023-01-09T19:57:37;98291.63;;;8.91;90.80
19672;BME280;9983;51.114;13.788;2023-01-09T20:02:37;98306.19;;;8.88;92.50
19672;BME280;9983;51.114;13.788;2023-01-09T20:07:37;98310.13;;;8.50;95.49
19672;BME280;9983;51.114;13.788;2023-01-09T20:12:37;98318.28;;;8.84;90.96
19672;BME280;9983;51.114;13.788;2023-01-09T20:17:38;98341.06;;;9.01;88.90
19672;BME280;9983;51.114;13.788;2023-01-09T20:22:38;98350.78;;;8.88;88.66
19672;BME280;9983;51.114;13.788;2023-01-09T20:27:38;98350.59;;;9.10;89.43
19672;BME280;9983;51.114;13.788;2023-01-09T20:32:38;98353.88;;;9.12;89.69
19672;BME280;9983;51.114;13.788;2023-01-09T20:37:38;98357.19;;;9.14;88.66
19672;BME280;9983;51.114;13.788;2023-01-09T20:42:39;98372.63;;;8.91;87.54
19672;BME280;9983;51.114;13.788;2023-01-09T20:47:39;98372.63;;;8.91;89.75
19672;BME280;9983;51.114;13.788;2023-01-09T20:52:39;98382.03;;;8.87;88.73
19672;BME280;9983;51.114;13.788;2023-01-09T20:57:39;98389.25;;;8.21;92.27
19672;BME280;9983;51.114;13.788;2023-01-09T21:02:40;98383.44;;;8.62;89.10
19672;BME280;9983;51.114;13.788;2023-01-09T21:07:40;98387.53;;;8.28;91.61
19672;BME280;9983;51.114;13.788;2023-01-09T21:12:40;98391.03;;;8.44;90.24
19672;BME280;9983;51.114;13.788;2023-01-09T21:17:42;98396.25;;;8.37;91.07
19672;BME280;9983;51.114;13.788;2023-01-09T21:22:42;98405.81;;;8.46;93.76
19672;BME280;9983;51.114;13.788;2023-01-09T21:27:43;98410.34;;;8.60;88.82
19672;BME280;9983;51.114;13.788;2023-01-09T21:32:45;98403.28;;;8.74;88.36
19672;BME280;9983;51.114;13.788;2023-01-09T21:37:46;98419.53;;;8.58;88.31
19672;BME280;9983;51.114;13.788;2023-01-09T21:42:46;98444.59;;;8.57;88.42
19672;BME280;9983;51.114;13.788;2023-01-09T21:48:05;98455.81;;;8.67;90.03
19672;BME280;9983;51.114;13.788;2023-01-09T21:53:06;98460.56;;;8.86;88.53
19672;BME280;9983;51.114;13.788;2023-01-09T21:58:07;98475.97;;;8.84;89.26
19672;BME280;9983;51.114;13.788;2023-01-09T22:03:14;98481.97;;;8.86;88.48
19672;BME280;9983;51.114;13.788;2023-01-09T22:08:15;98462.66;;;8.25;91.60
19672;BME280;9983;51.114;13.788;2023-01-09T22:13:15;98470.09;;;8.30;91.84
19672;BME280;9983;51.114;13.788;2023-01-09T22:18:16;98465.50;;;7.94;93.64
19672;BME280;9983;51.114;13.788;2023-01-09T22:23:17;98460.53;;;8.06;93.49
19672;BME280;9983;51.114;13.788;2023-01-09T22:28:17;98461.34;;;7.92;94.92
19672;BME280;9983;51.114;13.788;2023-01-09T22:33:17;98456.25;;;7.68;96.08
19672;BME280;9983;51.114;13.788;2023-01-09T22:38:18;98466.16;;;8.11;94.33
19672;BME280;9983;51.114;13.788;2023-01-09T22:43:18;98498.47;;;8.16;93.67
19672;BME280;9983;51.114;13.788;2023-01-09T22:48:18;98495.06;;;8.22;92.92
19672;BME280;9983;51.114;13.788;2023-01-09T22:53:18;98490.53;;;8.08;93.91
19672;BME280;9983;51.114;13.788;2023-01-09T22:58:18;98491.38;;;7.71;96.84
19672;BME280;9983;51.114;13.788;2023-01-09T23:03:19;98499.53;;;7.92;96.18
19672;BME280;9983;51.114;13.788;2023-01-09T23:08:19;98509.91;;;7.50;98.50
19672;BME280;9983;51.114;13.788;2023-01-09T23:13:20;98524.41;;;7.70;97.73
19672;BME280;9983;51.114;13.788;2023-01-09T23:18:21;98542.50;;;7.83;96.82
19672;BME280;9983;51.114;13.788;2023-01-09T23:23:22;98537.41;;;7.50;98.14
19672;BME280;9983;51.114;13.788;2023-01-09T23:28:25;98543.47;;;7.44;98.96
19672;BME280;9983;51.114;13.788;2023-01-09T23:33:25;98555.25;;;7.73;97.83
19672;BME280;9983;51.114;13.788;2023-01-09T23:38:25;98555.75;;;7.91;96.51
19672;BME280;9983;51.114;13.788;2023-01-09T23:43:26;98567.53;;;7.36;99.44
19672;BME280;9983;51.114;13.788;2023-01-09T23:48:26;98562.97;;;7.68;98.14
19672;BME280;9983;51.114;13.788;2023-01-09T23:53:26;98570.53;;;7.56;98.83
19672;BME280;9983;51.114;13.788;2023-01-09T23:58:31;98592.19;;;7.61;99.33
